Aérodrome :
LOGIN :

S'inscrire | Disclaimer

   EN    FR    IT 

 










Légende :    VFR   VFR Marginal   IFR   IFR Intensif   IFR Très Intensif
Visi : 
Plafond : 
>= 8 km
>= 3000ft
5 à 8 km
1000 à 3000 ft
1500m à 5 km
500 à 1000 ft
800 à 1500m
200 à 500 ft
< 800m
< 200 ft
Symboles :   Orages  Brouillard  Fortes neiges  Fortes précipitations  Vent > 20 kt
SIGMETs :   Divers  Orages  Givrage  Turbulence  Onde Orograph.  Cendres Volcan.







- Altitude de l'aérodrome : 191 ft
- Code IATA : RNB


ESDF - Ronneby

DERNIER METAR :
  • 181920Z 22003KT 9999 -SN BKN034 01/M01 Q1025

METARs EXPIRÉS :
  • 181850Z 21003KT 9999 -SN BKN032 01/M01 Q1025
  • 181820Z 21003KT 9999 BKN033 00/M01 Q1025
  • 181750Z 23003KT 9999 BKN037 01/M02 Q1025
  • 181720Z 24003KT 9999 BKN037 01/M01 Q1025
  • 181650Z 20002KT 9999 OVC040 00/M00 Q1025

TAF TAF ESDF
Valide du 18 à 18h jusqu'au 18 à 23h UTC


181730Z 1818/1823 20003KT 9999 OVC040
PROB40 1819/1823 4000 -SN
Pas de NOTAMs connus pour ce terrain.



MET'MAP, la Météo Aéronautique d'un coup d'oeil ! - Copyright ORBIFLY Décembre 2007 - Disclaimer

ORBIFLY MET'MAP TEAM :

Programmation & Développement : Alexandra Zaïnal
Conception & Développement : Baudouin d'Aumeries
Co-Programmation & Développement : Marc-Olivier Méhu
Soutien technique & logistique : Manuel Goepfert

Contact : metmap@orbifly.com




SOURCES & CREDITS :

   NOAA